createdAt,value
2023-01-28T00:00:49.923Z,5.10
2023-01-28T00:03:16.668Z,4.78
2023-01-28T00:05:43.453Z,4.80
2023-01-28T00:08:11.286Z,4.97
2023-01-28T00:10:41.805Z,4.55
2023-01-28T00:13:09.725Z,4.78
2023-01-28T00:15:36.544Z,4.57
2023-01-28T00:18:03.294Z,5.15
2023-01-28T00:20:29.939Z,5.10
2023-01-28T00:22:56.577Z,5.63
2023-01-28T00:25:23.241Z,5.45
2023-01-28T00:27:50.378Z,4.95
2023-01-28T00:30:18.008Z,5.23
2023-01-28T00:32:44.833Z,5.18
2023-01-28T00:35:11.790Z,5.32
2023-01-28T00:37:38.507Z,4.60
2023-01-28T00:40:05.612Z,5.05
2023-01-28T00:42:32.717Z,4.68
2023-01-28T00:44:59.296Z,4.78
2023-01-28T00:47:25.962Z,4.97
2023-01-28T00:49:52.703Z,5.07
2023-01-28T00:52:19.397Z,5.70
2023-01-28T00:54:46.031Z,4.63
2023-01-28T00:57:13.068Z,5.05
2023-01-28T00:59:39.799Z,4.72
2023-01-28T01:02:12.677Z,5.15
2023-01-28T01:04:40.982Z,5.53
2023-01-28T01:07:07.804Z,6.10
2023-01-28T01:09:34.576Z,6.13
2023-01-28T01:12:01.451Z,6.20
2023-01-28T01:14:28.251Z,6.10
2023-01-28T01:16:55.055Z,6.55
2023-01-28T01:19:21.753Z,7.35
2023-01-28T01:21:50.595Z,5.90
2023-01-28T01:24:17.769Z,7.67
2023-01-28T01:26:44.567Z,6.57
2023-01-28T01:29:11.259Z,6.03
2023-01-28T01:31:39.755Z,6.78
2023-01-28T01:34:06.514Z,6.85
2023-01-28T01:36:33.191Z,6.80
2023-01-28T01:38:59.859Z,6.47
2023-01-28T01:41:31.326Z,6.95
2023-01-28T01:43:59.351Z,6.40
2023-01-28T01:46:31.108Z,7.22
2023-01-28T01:49:19.420Z,7.90
2023-01-28T01:51:51.032Z,6.28
2023-01-28T01:54:18.959Z,6.88
2023-01-28T01:56:49.324Z,7.90
2023-01-28T01:59:22.180Z,7.22
2023-01-28T02:01:49.085Z,7.43
2023-01-28T02:04:26.674Z,7.50
2023-01-28T02:06:53.533Z,8.43
2023-01-28T02:09:25.466Z,7.63
2023-01-28T02:11:56.405Z,8.85
2023-01-28T02:14:31.366Z,8.50
2023-01-28T02:17:00.306Z,8.10
2023-01-28T02:19:38.076Z,7.43
2023-01-28T02:22:05.766Z,8.70
2023-01-28T02:25:01.293Z,8.85
2023-01-28T02:27:51.847Z,8.70
2023-01-28T02:30:26.999Z,8.87
2023-01-28T02:32:58.919Z,8.13
2023-01-28T02:35:36.779Z,7.85
2023-01-28T02:38:11.182Z,7.45
2023-01-28T02:41:01.938Z,7.85
2023-01-28T02:43:39.519Z,8.43
2023-01-28T02:46:45.268Z,8.03
2023-01-28T02:49:18.451Z,8.15
2023-01-28T02:52:02.796Z,8.40
2023-01-28T02:54:49.409Z,8.50
2023-01-28T02:57:22.260Z,9.48
2023-01-28T03:00:18.219Z,8.60
2023-01-28T03:03:07.117Z,7.82
2023-01-28T03:05:39.338Z,8.13
2023-01-28T03:08:27.332Z,9.10
2023-01-28T03:11:16.698Z,9.40
2023-01-28T03:14:05.216Z,10.15
2023-01-28T03:16:53.795Z,10.63
2023-01-28T03:19:47.571Z,10.40
2023-01-28T03:22:34.425Z,9.27
2023-01-28T03:25:22.111Z,9.80
2023-01-28T03:28:20.088Z,10.60
2023-01-28T03:31:16.544Z,10.27
2023-01-28T03:34:04.267Z,10.18
2023-01-28T03:36:51.726Z,10.27
2023-01-28T03:39:21.982Z,11.02
2023-01-28T03:42:01.351Z,11.65
2023-01-28T03:44:48.266Z,10.60
2023-01-28T03:47:15.571Z,11.00
2023-01-28T03:49:46.037Z,12.57
2023-01-28T03:52:13.438Z,12.10
2023-01-28T03:54:40.099Z,11.55
2023-01-28T03:57:07.032Z,13.07
2023-01-28T03:59:34.427Z,12.07
2023-01-28T04:02:03.420Z,14.75
2023-01-28T04:04:32.610Z,13.70
2023-01-28T04:06:59.546Z,14.52
2023-01-28T04:09:26.453Z,13.63
2023-01-28T04:11:53.221Z,13.20
2023-01-28T04:14:19.927Z,14.23
2023-01-28T04:16:46.842Z,14.90
2023-01-28T04:19:13.914Z,14.60
2023-01-28T04:21:40.801Z,15.73
2023-01-28T04:24:08.020Z,16.20
2023-01-28T04:26:34.835Z,15.60
2023-01-28T04:29:01.483Z,15.40
2023-01-28T04:31:28.287Z,15.95
2023-01-28T04:33:55.081Z,17.30
2023-01-28T04:36:21.682Z,16.00
2023-01-28T04:38:48.369Z,16.00
2023-01-28T04:41:15.514Z,16.00
2023-01-28T04:43:42.307Z,16.55
2023-01-28T04:46:10.097Z,16.57
2023-01-28T04:48:36.824Z,15.48
2023-01-28T04:51:04.831Z,16.67
2023-01-28T04:53:31.656Z,17.35
2023-01-28T04:55:58.435Z,15.57
2023-01-28T04:58:25.316Z,16.27
2023-01-28T05:01:00.291Z,16.05
2023-01-28T05:03:27.512Z,15.68
2023-01-28T05:05:54.274Z,15.43
2023-01-28T05:08:21.021Z,16.27
2023-01-28T05:10:47.867Z,17.17
2023-01-28T05:13:14.586Z,17.02
2023-01-28T05:15:41.384Z,17.17
2023-01-28T05:18:08.153Z,15.52
2023-01-28T05:20:34.912Z,16.55
2023-01-28T05:23:01.607Z,17.58
2023-01-28T05:25:28.353Z,16.67
2023-01-28T05:27:55.070Z,18.77
2023-01-28T05:30:22.225Z,16.95
2023-01-28T05:32:49.633Z,16.83
2023-01-28T05:35:17.145Z,16.92
2023-01-28T05:37:44.200Z,17.38
2023-01-28T05:40:11.549Z,17.58
2023-01-28T05:42:38.304Z,17.45
2023-01-28T05:45:05.433Z,17.90
2023-01-28T05:47:33.500Z,15.68
2023-01-28T05:50:00.208Z,18.73
2023-01-28T05:52:27.012Z,15.93
2023-01-28T05:54:53.821Z,16.67
2023-01-28T05:57:20.519Z,16.30
2023-01-28T05:59:47.210Z,16.88
2023-01-28T06:02:13.934Z,17.37
2023-01-28T06:04:40.671Z,16.05
2023-01-28T06:07:07.377Z,16.30
2023-01-28T06:09:34.092Z,16.05
2023-01-28T06:12:00.791Z,16.73
2023-01-28T06:14:27.607Z,17.48
2023-01-28T06:16:54.394Z,17.33
2023-01-28T06:19:21.150Z,17.02
2023-01-28T06:21:47.912Z,17.95
2023-01-28T06:24:14.655Z,17.90
2023-01-28T06:26:41.402Z,17.48
2023-01-28T06:29:08.283Z,17.77
2023-01-28T06:31:34.968Z,18.33
2023-01-28T06:34:01.656Z,19.88
2023-01-28T06:36:28.360Z,19.63
2023-01-28T06:38:55.044Z,20.17
2023-01-28T06:41:22.436Z,19.73
2023-01-28T06:43:49.091Z,19.02
2023-01-28T06:46:15.878Z,20.73
2023-01-28T06:48:42.599Z,19.42
2023-01-28T06:51:09.294Z,18.80
2023-01-28T06:53:36.025Z,19.50
2023-01-28T06:56:02.770Z,18.52
2023-01-28T06:58:29.629Z,19.73
2023-01-28T07:00:56.384Z,18.15
2023-01-28T07:03:23.158Z,17.38
2023-01-28T07:05:49.891Z,18.20
2023-01-28T07:08:16.603Z,20.33
2023-01-28T07:10:44.328Z,19.50
2023-01-28T07:13:11.282Z,18.08
2023-01-28T07:15:38.058Z,19.00
2023-01-28T07:18:04.765Z,17.65
2023-01-28T07:20:31.575Z,19.60
2023-01-28T07:22:58.244Z,18.27
2023-01-28T07:25:25.017Z,17.02
2023-01-28T07:27:53.293Z,18.45
2023-01-28T07:30:21.083Z,16.42
2023-01-28T07:32:47.880Z,17.10
2023-01-28T07:35:15.925Z,16.10
2023-01-28T07:37:42.658Z,14.65
2023-01-28T07:40:10.209Z,14.65
2023-01-28T07:42:36.984Z,14.18
2023-01-28T07:45:05.057Z,14.05
2023-01-28T07:47:31.889Z,12.80
2023-01-28T07:49:58.656Z,14.90
2023-01-28T07:52:25.296Z,13.15
2023-01-28T07:54:51.957Z,13.50
2023-01-28T07:57:23.373Z,13.67
2023-01-28T07:59:51.089Z,13.88
2023-01-28T08:02:18.402Z,12.43
2023-01-28T08:04:47.075Z,12.13
2023-01-28T08:07:13.918Z,12.88
2023-01-28T08:09:40.661Z,12.65
2023-01-28T08:12:07.445Z,14.37
2023-01-28T08:14:34.124Z,13.75
2023-01-28T08:17:00.839Z,12.25
2023-01-28T08:19:27.527Z,12.65
2023-01-28T08:21:54.282Z,13.00
2023-01-28T08:24:20.955Z,11.60
2023-01-28T08:26:48.628Z,11.13
2023-01-28T08:29:15.322Z,11.25
2023-01-28T08:31:42.099Z,11.20
2023-01-28T08:34:08.923Z,11.35
2023-01-28T08:36:35.683Z,10.70
2023-01-28T08:39:02.455Z,9.85
2023-01-28T08:41:30.241Z,10.35
2023-01-28T08:43:56.943Z,10.10
2023-01-28T08:46:23.717Z,12.18
2023-01-28T08:48:51.718Z,10.00
2023-01-28T08:51:18.448Z,10.95
2023-01-28T08:53:45.111Z,10.00
2023-01-28T08:56:11.844Z,9.70
2023-01-28T08:58:38.520Z,11.30
2023-01-28T09:01:06.792Z,10.25
2023-01-28T09:03:33.631Z,12.00
2023-01-28T09:06:02.254Z,8.25
2023-01-28T09:08:29.033Z,7.53
2023-01-28T09:10:57.182Z,8.13
2023-01-28T09:13:24.479Z,7.90
2023-01-28T09:15:51.752Z,7.50
2023-01-28T09:18:19.333Z,8.07
2023-01-28T09:20:46.218Z,7.00
2023-01-28T09:23:13.470Z,5.95
2023-01-28T09:25:40.255Z,6.57
2023-01-28T09:28:07.537Z,6.63
2023-01-28T09:30:37.019Z,6.03
2023-01-28T09:33:04.298Z,5.37
2023-01-28T09:35:31.069Z,4.60
2023-01-28T09:37:59.005Z,4.88
2023-01-28T09:40:37.662Z,4.20
2023-01-28T09:43:14.405Z,4.50
2023-01-28T09:45:45.654Z,5.13
2023-01-28T09:48:21.558Z,4.57
2023-01-28T09:50:51.551Z,4.33
2023-01-28T09:53:21.785Z,4.90
2023-01-28T09:56:01.898Z,4.00
2023-01-28T09:58:28.949Z,3.60
2023-01-28T10:01:12.215Z,3.25
2023-01-28T10:03:59.922Z,4.07
2023-01-28T10:06:46.475Z,3.50
2023-01-28T10:09:14.123Z,3.00
2023-01-28T10:11:48.279Z,3.15
2023-01-28T10:14:46.449Z,2.92
2023-01-28T10:17:16.574Z,6.47
2023-01-28T10:19:51.141Z,5.20
2023-01-28T10:22:25.858Z,2.90
2023-01-28T10:25:01.718Z,2.90
2023-01-28T10:27:31.225Z,3.13
2023-01-28T10:30:00.147Z,3.60
2023-01-28T10:32:31.345Z,2.80
2023-01-28T10:34:59.746Z,3.28
2023-01-28T10:37:27.656Z,4.40
2023-01-28T10:39:58.069Z,4.18
2023-01-28T10:42:31.206Z,14.60
2023-01-28T10:45:02.157Z,6.75
2023-01-28T10:47:38.077Z,4.15
2023-01-28T10:50:06.109Z,4.97
2023-01-28T10:52:32.752Z,3.23
2023-01-28T10:55:02.667Z,3.33
2023-01-28T10:57:29.776Z,6.40
2023-01-28T10:59:56.466Z,3.55
2023-01-28T11:02:32.730Z,2.78
2023-01-28T11:05:04.816Z,2.60
2023-01-28T11:07:31.887Z,4.47
2023-01-28T11:09:59.110Z,4.22
2023-01-28T11:12:28.866Z,4.45
2023-01-28T11:14:59.793Z,3.38
2023-01-28T11:17:29.515Z,2.30
2023-01-28T11:20:00.144Z,2.25
2023-01-28T11:22:35.776Z,2.30
2023-01-28T11:25:07.661Z,2.17
2023-01-28T11:27:34.456Z,2.70
2023-01-28T11:30:04.562Z,2.00
2023-01-28T11:32:31.664Z,2.25
2023-01-28T11:34:59.138Z,1.75
2023-01-28T11:37:27.626Z,2.00
2023-01-28T11:40:04.842Z,2.10
2023-01-28T11:42:31.992Z,2.17
2023-01-28T11:44:58.740Z,2.30
2023-01-28T11:47:58.561Z,2.03
2023-01-28T11:50:41.564Z,1.70
2023-01-28T11:53:29.594Z,2.42
2023-01-28T11:56:23.869Z,2.63
2023-01-28T11:59:08.216Z,2.30
2023-01-28T12:01:51.577Z,2.08
2023-01-28T12:04:35.005Z,3.05
2023-01-28T12:07:23.601Z,3.10
2023-01-28T12:10:02.577Z,2.83
2023-01-28T12:12:59.342Z,2.78
2023-01-28T12:15:39.949Z,3.90
2023-01-28T12:18:07.711Z,3.97
2023-01-28T12:20:43.147Z,2.90
2023-01-28T12:23:23.600Z,2.80
2023-01-28T12:26:16.352Z,3.33
2023-01-28T12:28:52.261Z,3.95
2023-01-28T12:31:29.809Z,2.70
2023-01-28T12:34:36.430Z,3.40
2023-01-28T12:37:22.743Z,3.60
2023-01-28T12:40:01.186Z,2.95
2023-01-28T12:42:48.647Z,3.15
2023-01-28T12:45:17.620Z,3.73
2023-01-28T12:47:53.222Z,4.07
2023-01-28T12:50:22.868Z,3.90
2023-01-28T12:52:56.652Z,4.00
2023-01-28T12:55:39.880Z,3.33
2023-01-28T12:58:15.592Z,3.15
2023-01-28T13:00:48.370Z,3.40
2023-01-28T13:03:17.099Z,3.80
2023-01-28T13:05:50.296Z,3.75
2023-01-28T13:08:26.405Z,3.53
2023-01-28T13:10:56.589Z,3.55
2023-01-28T13:13:32.523Z,3.50
2023-01-28T13:16:00.514Z,5.03
2023-01-28T13:18:34.665Z,4.07
2023-01-28T13:21:02.314Z,3.17
2023-01-28T13:23:39.854Z,3.42
2023-01-28T13:26:24.684Z,3.33
2023-01-28T13:28:53.706Z,3.20
2023-01-28T13:31:23.374Z,3.47
2023-01-28T13:33:57.379Z,3.15
2023-01-28T13:36:31.962Z,3.15
2023-01-28T13:39:04.203Z,3.87
2023-01-28T13:41:42.922Z,4.00
2023-01-28T13:44:25.687Z,4.00
2023-01-28T13:46:54.422Z,3.67
2023-01-28T13:49:32.663Z,4.80
2023-01-28T13:52:09.133Z,4.10
2023-01-28T13:54:39.097Z,3.92
2023-01-28T13:57:10.019Z,3.50
2023-01-28T14:00:13.010Z,4.13
2023-01-28T14:02:49.456Z,3.20
2023-01-28T14:05:36.348Z,4.50
2023-01-28T14:08:29.988Z,4.10
2023-01-28T14:11:24.848Z,5.30
2023-01-28T14:14:30.916Z,5.68
2023-01-28T14:17:06.466Z,4.88
2023-01-28T14:19:36.242Z,3.20
2023-01-28T14:22:15.089Z,4.25
2023-01-28T14:24:41.793Z,3.20
2023-01-28T14:27:32.967Z,3.60
2023-01-28T14:30:25.686Z,4.73
2023-01-28T14:32:54.308Z,2.97
2023-01-28T14:35:30.116Z,3.40
2023-01-28T14:37:58.420Z,3.78
2023-01-28T14:40:25.783Z,10.80
2023-01-28T14:42:55.796Z,4.63
2023-01-28T14:46:04.133Z,4.37
2023-01-28T14:49:03.366Z,3.47
2023-01-28T14:51:40.388Z,3.33
2023-01-28T14:54:17.860Z,3.87
2023-01-28T14:56:55.651Z,3.13
2023-01-28T14:59:27.454Z,3.70
2023-01-28T15:01:58.794Z,3.72
2023-01-28T15:04:33.869Z,3.60
2023-01-28T15:07:22.740Z,4.05
2023-01-28T15:10:14.320Z,4.13
2023-01-28T15:12:44.634Z,3.75
2023-01-28T15:15:36.719Z,3.83
2023-01-28T15:18:23.197Z,4.85
2023-01-28T15:20:54.212Z,5.57
2023-01-28T15:23:33.800Z,4.97
2023-01-28T15:26:06.314Z,5.68
2023-01-28T15:28:37.021Z,4.60
2023-01-28T15:31:04.201Z,4.07
2023-01-28T15:33:31.007Z,5.28
2023-01-28T15:35:59.332Z,4.43
2023-01-28T15:38:28.992Z,5.07
2023-01-28T15:40:58.937Z,5.15
2023-01-28T15:43:31.754Z,4.65
2023-01-28T15:45:59.361Z,4.60
2023-01-28T15:48:29.149Z,5.55
2023-01-28T15:51:03.634Z,5.10
2023-01-28T15:53:42.199Z,6.00
2023-01-28T15:56:11.514Z,5.03
2023-01-28T15:58:41.559Z,4.37
2023-01-28T16:01:08.741Z,4.33
2023-01-28T16:03:39.460Z,4.18
2023-01-28T16:06:11.315Z,4.03
2023-01-28T16:08:51.934Z,4.43
2023-01-28T16:11:25.722Z,3.85
2023-01-28T16:13:52.764Z,5.40
2023-01-28T16:16:32.103Z,4.90
2023-01-28T16:18:59.346Z,4.18
2023-01-28T16:21:29.969Z,3.70
2023-01-28T16:24:01.158Z,5.03
2023-01-28T16:26:29.778Z,3.75
2023-01-28T16:28:56.636Z,4.67
2023-01-28T16:31:23.561Z,4.47
2023-01-28T16:33:50.310Z,4.70
2023-01-28T16:36:19.197Z,3.70
2023-01-28T16:38:46.398Z,3.10
2023-01-28T16:41:17.566Z,3.37
2023-01-28T16:43:44.214Z,3.58
2023-01-28T16:46:13.231Z,5.15
2023-01-28T16:48:39.961Z,4.05
2023-01-28T16:51:06.998Z,3.88
2023-01-28T16:53:34.739Z,4.72
2023-01-28T16:56:02.642Z,9.93
2023-01-28T16:58:30.211Z,4.75
2023-01-28T17:00:57.424Z,3.50
2023-01-28T17:03:24.711Z,4.38
2023-01-28T17:05:51.545Z,4.32
2023-01-28T17:08:18.287Z,5.05
2023-01-28T17:10:45.027Z,3.60
2023-01-28T17:13:11.834Z,4.28
2023-01-28T17:15:38.557Z,3.70
2023-01-28T17:18:05.445Z,3.67
2023-01-28T17:20:37.229Z,4.25
2023-01-28T17:23:06.095Z,4.72
2023-01-28T17:25:37.874Z,4.47
2023-01-28T17:28:05.382Z,3.97
2023-01-28T17:30:32.381Z,3.70
2023-01-28T17:32:59.059Z,4.30
2023-01-28T17:35:25.842Z,4.32
2023-01-28T17:37:53.645Z,4.65
2023-01-28T17:40:20.677Z,4.90
2023-01-28T17:42:47.405Z,7.05
2023-01-28T17:45:14.677Z,5.28
2023-01-28T17:47:41.691Z,6.85
2023-01-28T17:50:09.400Z,4.97
2023-01-28T17:52:35.948Z,5.65
2023-01-28T17:55:02.686Z,5.35
2023-01-28T17:57:29.528Z,5.28
2023-01-28T17:59:56.475Z,6.00
2023-01-28T18:02:23.158Z,5.10
2023-01-28T18:04:50.374Z,5.38
2023-01-28T18:07:17.088Z,5.85
2023-01-28T18:09:45.946Z,5.40
2023-01-28T18:12:14.906Z,5.30
2023-01-28T18:14:42.068Z,6.20
2023-01-28T18:17:09.023Z,5.25
2023-01-28T18:19:35.708Z,5.05
2023-01-28T18:22:02.471Z,5.13
2023-01-28T18:24:30.434Z,5.23
2023-01-28T18:26:59.973Z,5.40
2023-01-28T18:29:28.957Z,5.05
2023-01-28T18:31:57.543Z,5.25
2023-01-28T18:34:26.793Z,5.15
2023-01-28T18:36:53.939Z,5.13
2023-01-28T18:39:21.195Z,6.20
2023-01-28T18:41:48.078Z,6.10
2023-01-28T18:44:15.975Z,5.20
2023-01-28T18:46:42.887Z,5.93
2023-01-28T18:49:09.673Z,6.45
2023-01-28T18:51:36.608Z,5.90
2023-01-28T18:54:05.064Z,6.10
2023-01-28T18:56:32.753Z,7.65
2023-01-28T18:59:02.370Z,6.28
2023-01-28T19:01:30.006Z,6.55
2023-01-28T19:03:57.636Z,6.65
2023-01-28T19:06:25.568Z,6.20
2023-01-28T19:08:53.998Z,6.35
2023-01-28T19:11:22.180Z,6.63
2023-01-28T19:13:48.918Z,8.13
2023-01-28T19:16:15.723Z,6.05
2023-01-28T19:18:42.482Z,6.35
2023-01-28T19:21:09.625Z,5.90
2023-01-28T19:23:49.346Z,6.50
2023-01-28T19:26:20.941Z,6.63
2023-01-28T19:28:49.241Z,6.20
2023-01-28T19:31:19.125Z,5.55
2023-01-28T19:33:46.809Z,5.85
2023-01-28T19:36:14.375Z,6.60
2023-01-28T19:38:41.269Z,6.15
2023-01-28T19:41:08.380Z,5.95
2023-01-28T19:43:35.392Z,5.68
2023-01-28T19:46:04.784Z,6.40
2023-01-28T19:48:32.270Z,6.50
2023-01-28T19:51:07.303Z,9.93
2023-01-28T19:53:35.351Z,14.18
2023-01-28T19:56:03.545Z,20.02
2023-01-28T19:58:34.589Z,20.35
2023-01-28T20:01:23.995Z,11.27
2023-01-28T20:03:54.470Z,9.77
2023-01-28T20:06:22.889Z,7.60
2023-01-28T20:08:54.757Z,6.68
2023-01-28T20:11:22.592Z,7.30
2023-01-28T20:13:51.479Z,5.53
2023-01-28T20:16:23.182Z,4.82
2023-01-28T20:18:55.905Z,5.95
2023-01-28T20:21:23.072Z,5.95
2023-01-28T20:23:51.798Z,4.95
2023-01-28T20:26:21.828Z,5.05
2023-01-28T20:28:49.720Z,5.15
2023-01-28T20:31:17.778Z,5.73
2023-01-28T20:33:44.768Z,5.37
2023-01-28T20:36:13.910Z,5.68
2023-01-28T20:38:43.285Z,5.25
2023-01-28T20:41:14.101Z,5.65
2023-01-28T20:43:42.673Z,6.32
2023-01-28T20:46:13.963Z,5.97
2023-01-28T20:48:41.024Z,5.60
2023-01-28T20:51:10.977Z,5.78
2023-01-28T20:53:38.369Z,6.45
2023-01-28T20:56:06.105Z,5.35
2023-01-28T20:58:33.312Z,4.60
2023-01-28T21:01:00.338Z,4.70
2023-01-28T21:03:27.115Z,6.50
2023-01-28T21:05:53.832Z,5.55
2023-01-28T21:08:20.620Z,5.33
2023-01-28T21:10:47.396Z,5.03
2023-01-28T21:13:15.388Z,5.85
2023-01-28T21:15:52.172Z,6.22
2023-01-28T21:18:18.908Z,4.67
2023-01-28T21:20:45.610Z,6.40
2023-01-28T21:23:14.783Z,5.57
2023-01-28T21:25:43.512Z,4.68
2023-01-28T21:28:11.059Z,6.38
2023-01-28T21:30:37.935Z,5.63
2023-01-28T21:33:04.825Z,7.55
2023-01-28T21:35:31.719Z,6.25
2023-01-28T21:37:58.337Z,6.50
2023-01-28T21:40:25.038Z,5.57
2023-01-28T21:42:53.373Z,5.10
2023-01-28T21:45:20.427Z,7.13
2023-01-28T21:47:47.122Z,6.82
2023-01-28T21:50:14.219Z,7.75
2023-01-28T21:52:41.160Z,6.53
2023-01-28T21:55:08.329Z,7.63
2023-01-28T21:57:35.340Z,6.85
2023-01-28T22:00:02.056Z,7.13
2023-01-28T22:02:28.833Z,6.55
2023-01-28T22:04:55.562Z,6.88
2023-01-28T22:07:22.469Z,5.57
2023-01-28T22:09:49.211Z,5.93
2023-01-28T22:12:16.307Z,6.18
2023-01-28T22:14:43.829Z,6.45
2023-01-28T22:17:11.890Z,5.72
2023-01-28T22:19:39.229Z,6.68
2023-01-28T22:22:06.727Z,5.82
2023-01-28T22:24:33.665Z,6.03
2023-01-28T22:27:00.490Z,5.28
2023-01-28T22:29:27.177Z,5.30
2023-01-28T22:31:54.867Z,5.32
2023-01-28T22:34:22.610Z,6.15
2023-01-28T22:36:50.260Z,5.43
2023-01-28T22:39:17.528Z,6.40
2023-01-28T22:41:45.067Z,6.45
2023-01-28T22:44:12.016Z,5.50
2023-01-28T22:46:38.782Z,5.45
2023-01-28T22:49:05.665Z,5.22
2023-01-28T22:51:34.940Z,5.50
2023-01-28T22:54:01.764Z,5.43
2023-01-28T22:56:29.630Z,5.20
2023-01-28T22:58:57.089Z,5.35
2023-01-28T23:01:24.597Z,5.32
2023-01-28T23:03:52.152Z,5.38
2023-01-28T23:06:21.138Z,5.60
2023-01-28T23:08:48.364Z,5.70
2023-01-28T23:11:24.934Z,6.07
2023-01-28T23:14:13.887Z,4.43
2023-01-28T23:17:00.545Z,5.03
2023-01-28T23:19:47.352Z,4.90
2023-01-28T23:22:39.002Z,4.97
2023-01-28T23:25:06.013Z,6.03
2023-01-28T23:27:33.025Z,4.72
2023-01-28T23:29:59.729Z,4.80
2023-01-28T23:32:26.705Z,5.07
2023-01-28T23:34:53.477Z,5.07
2023-01-28T23:37:20.301Z,5.88
2023-01-28T23:39:47.013Z,5.78
2023-01-28T23:42:18.271Z,5.93
2023-01-28T23:44:44.966Z,6.63
2023-01-28T23:47:12.244Z,5.03
2023-01-28T23:49:39.480Z,5.40
2023-01-28T23:52:07.756Z,5.20
2023-01-28T23:54:34.876Z,5.28
2023-01-28T23:57:02.089Z,5.07
2023-01-28T23:59:28.852Z,5.88
